Time;durP1;ratioP1;P1;durP2;ratioP2;P2;SDS_P1;SDS_P2;PMS_P1;PMS_P2;Temp;Humidity;BMP_temperature;BMP_pressure;BME280_temperature;BME280_humidity;BME280_pressure;Samples;Min_cycle;Max_cycle;Signal;HPM_P1;HPM_P2
2023/03/19 00:01:07;;;;;;;22.73;3.72;;;;;;;8.19;72.27;101487.73;1735412;83;21104;-41
2023/03/19 00:03:35;;;;;;;;;;;;;;;8.17;72.27;101498.70;1766929;81;21186;-41
2023/03/19 00:06:04;;;;;;;14.58;2.50;;;;;;;8.16;72.24;101496.53;1764361;81;20118;-41
2023/03/19 00:08:33;;;;;;;19.17;3.52;;;;;;;8.09;72.19;101496.20;1735568;83;21114;-41
2023/03/19 00:11:06;;;;;;;18.10;4.40;;;;;;;8.01;72.26;101485.84;1764409;81;21098;-41
2023/03/19 00:13:34;;;;;;;;;;;;;;;7.96;72.36;101478.49;1738082;83;21107;-41
2023/03/19 00:16:03;;;;;;;14.78;3.12;;;;;;;7.94;72.34;101472.41;1735552;83;20419;-41
2023/03/19 00:18:32;;;;;;;25.68;4.22;;;;;;;7.88;72.37;101475.14;1764446;81;21160;-41
2023/03/19 00:21:00;;;;;;;25.97;4.58;;;;;;;7.86;72.39;101480.86;1735471;83;21098;-41
2023/03/19 00:23:29;;;;;;;23.77;3.00;;;;;;;7.85;72.44;101482.59;1764376;81;21095;-40
2023/03/19 00:25:57;;;;;;;17.20;3.45;;;;;;;7.85;72.45;101481.73;1735339;82;21248;-42
2023/03/19 00:28:26;;;;;;;22.30;3.45;;;;;;;7.83;72.49;101480.90;1764369;81;21170;-42
2023/03/19 00:30:55;;;;;;;22.02;5.10;;;;;;;7.82;72.53;101474.80;1735593;83;21573;-41
2023/03/19 00:33:25;;;;;;;22.10;4.67;;;;;;;7.81;72.54;101476.12;1764468;81;21098;-40
2023/03/19 00:35:55;;;;;;;23.02;4.72;;;;;;;7.81;72.54;101476.12;1735645;83;21154;-41
2023/03/19 00:38:23;;;;;;;20.17;3.35;;;;;;;7.78;72.59;101474.86;1764437;81;21237;-41
2023/03/19 00:40:52;;;;;;;19.90;4.25;;;;;;;7.77;72.62;101483.17;1735602;83;21169;-41
2023/03/19 00:43:20;;;;;;;24.00;4.30;;;;;;;7.76;72.66;101485.81;1764509;81;21095;-41
2023/03/19 00:45:49;;;;;;;33.15;3.70;;;;;;;7.74;72.68;101480.14;1735520;83;21135;-40
2023/03/19 00:48:18;;;;;;;21.75;4.75;;;;;;;7.74;72.67;101478.83;1735536;83;21516;-40
2023/03/19 00:50:47;;;;;;;28.73;3.90;;;;;;;7.75;72.72;101482.34;1764488;81;21178;-41
2023/03/19 00:53:16;;;;;;;22.52;3.75;;;;;;;7.77;72.70;101483.63;1735615;82;21678;-41
2023/03/19 00:55:45;;;;;;;17.82;4.17;;;;;;;7.77;72.71;101481.86;1764604;81;21478;-41
2023/03/19 00:58:14;;;;;;;29.15;4.42;;;;;;;7.77;72.66;101486.25;1735544;83;21125;-40
2023/03/19 01:00:42;;;;;;;23.05;4.95;;;;;;;7.74;72.68;101488.00;1764501;81;21074;-41
2023/03/19 01:03:11;;;;;;;20.25;4.03;;;;;;;7.74;72.64;101486.69;1735525;83;21114;-40
2023/03/19 01:05:40;;;;;;;32.93;5.05;;;;;;;7.75;72.63;101490.20;1764278;81;21139;-41
2023/03/19 01:08:09;;;;;;;27.80;5.10;;;;;;;7.73;72.62;101490.22;1735525;82;21643;-42
2023/03/19 01:10:38;;;;;;;27.73;3.95;;;;;;;7.72;72.62;101485.85;1764674;81;21627;-42
2023/03/19 01:13:06;;;;;;;11.90;2.75;;;;;;;7.71;72.65;101480.20;1735633;83;21058;-43
2023/03/19 01:15:40;;;;;;;23.83;3.87;;;;;;;7.66;72.69;101482.48;1764465;81;21122;-44
2023/03/19 01:18:10;;;;;;;24.15;3.70;;;;;;;7.62;72.75;101488.20;1735414;82;21114;-44
2023/03/19 01:20:41;;;;;;;20.45;3.67;;;;;;;7.56;72.82;101484.34;1764540;81;21571;-40
2023/03/19 01:23:10;;;;;;;13.20;3.20;;;;;;;7.52;72.89;101487.91;1735523;82;21629;-40
2023/03/19 01:25:40;;;;;;;22.10;4.17;;;;;;;7.50;72.89;101487.06;1764435;81;21201;-41
2023/03/19 01:28:09;;;;;;;14.55;3.12;;;;;;;7.49;72.89;101487.52;1735617;83;21107;-40
2023/03/19 01:30:39;;;;;;;23.87;4.08;;;;;;;7.51;72.87;101486.19;1764212;81;21081;-42
2023/03/19 01:33:18;;;;;;;13.88;3.25;;;;;;;7.49;72.88;101492.76;1735163;82;21086;-45
2023/03/19 01:35:58;;;;;;;25.60;5.25;;;;;;;7.50;72.85;101494.92;1763953;81;21173;-43
2023/03/19 01:38:29;;;;;;;20.92;4.20;;;;;;;7.50;72.95;101493.62;1734994;82;21153;-43
2023/03/19 01:40:59;;;;;;;14.90;3.98;;;;;;;7.49;72.99;101494.06;1764018;81;21133;-44
2023/03/19 01:43:30;;;;;;;22.70;4.67;;;;;;;7.49;73.02;101491.90;1735644;81;21644;-43
2023/03/19 01:46:09;;;;;;;20.00;3.90;;;;;;;7.49;73.04;101491.90;1763111;81;21176;-42
2023/03/19 01:48:48;;;;;;;21.70;3.67;;;;;;;7.46;73.01;101487.55;1733167;82;21109;-41
2023/03/19 01:51:20;;;;;;;26.17;4.75;;;;;;;7.44;73.09;101483.23;1764408;81;21129;-42
2023/03/19 01:54:03;;;;;;;16.67;3.37;;;;;;;7.40;73.16;101477.63;1729547;83;21101;-42
2023/03/19 01:56:36;;;;;;;23.80;3.62;;;;;;;7.35;73.27;101474.59;1762628;81;21563;-42
2023/03/19 01:59:13;;;;;;;26.80;4.60;;;;;;;7.37;73.25;101472.41;1720756;83;21160;-42
2023/03/19 02:01:58;;;;;;;18.48;4.40;;;;;;;7.34;73.25;101474.19;1733520;82;21534;-40
2023/03/19 02:04:27;;;;;;;;;;;;;;;7.31;73.36;101468.98;1767069;81;21087;-41
2023/03/19 02:06:57;;;;;;;24.10;4.65;;;;;;;7.30;73.33;101471.20;1764454;80;20125;-41
2023/03/19 02:09:27;;;;;;;11.68;3.52;;;;;;;7.24;73.47;101479.12;1735640;83;21086;-41
2023/03/19 02:11:56;;;;;;;21.33;4.50;;;;;;;7.23;73.51;101482.64;1764425;81;21110;-41
2023/03/19 02:14:24;;;;;;;20.72;3.95;;;;;;;7.21;73.48;101479.18;1735429;83;21603;-43
2023/03/19 02:16:55;;;;;;;19.02;4.60;;;;;;;7.19;73.50;101484.85;1764602;81;21090;-41
2023/03/19 02:19:39;;;;;;;21.37;4.30;;;;;;;7.17;73.56;101485.77;1735549;83;21149;-41
2023/03/19 02:22:10;;;;;;;17.48;4.70;;;;;;;7.12;73.56;101488.02;1764433;81;21190;-41
2023/03/19 02:24:48;;;;;;;15.18;3.92;;;;;;;7.12;73.61;101497.63;1735483;83;21122;-41
2023/03/19 02:27:18;;;;;;;21.93;5.00;;;;;;;7.10;73.61;101495.45;1763934;81;21256;-41
2023/03/19 02:29:47;;;;;;;30.85;5.50;;;;;;;7.08;73.62;101486.75;1714562;83;21608;-41
2023/03/19 02:32:16;;;;;;;20.88;5.95;;;;;;;7.06;73.65;101488.52;1764418;81;21087;-41
2023/03/19 02:34:45;;;;;;;14.15;4.33;;;;;;;7.04;73.72;101486.37;1735507;82;21145;-41
2023/03/19 02:37:22;;;;;;;19.20;5.05;;;;;;;7.05;73.80;101486.81;1764625;81;21489;-42
2023/03/19 02:40:00;;;;;;;18.75;4.60;;;;;;;7.06;73.68;101493.77;1735472;83;21609;-41
2023/03/19 02:42:29;;;;;;;11.93;4.40;;;;;;;7.04;73.74;101494.23;1751896;81;21723;-41
2023/03/19 02:44:58;;;;;;;18.57;5.10;;;;;;;7.02;73.76;101494.69;1735462;83;21734;-41
2023/03/19 02:47:27;;;;;;;11.55;3.92;;;;;;;7.00;73.79;101491.23;1764531;81;21090;-41
2023/03/19 02:49:56;;;;;;;21.15;7.00;;;;;;;6.95;73.87;101488.23;1735398;81;21605;-41
2023/03/19 02:52:26;;;;;;;29.50;5.12;;;;;;;6.91;73.99;101498.73;1764432;81;21138;-40
2023/03/19 02:54:55;;;;;;;18.15;4.47;;;;;;;6.90;73.95;101510.97;1735465;83;21150;-40
2023/03/19 02:57:25;;;;;;;19.95;4.83;;;;;;;6.88;73.95;101511.44;1764449;81;21573;-39
2023/03/19 02:59:54;;;;;;;21.05;5.42;;;;;;;6.88;74.05;101513.16;1735529;82;21197;-41
2023/03/19 03:02:23;;;;;;;23.80;5.00;;;;;;;6.90;74.09;101503.12;1764337;81;21102;-42
2023/03/19 03:04:52;;;;;;;17.95;5.20;;;;;;;6.87;74.25;101514.92;1735586;83;21653;-42
2023/03/19 03:07:21;;;;;;;21.23;4.50;;;;;;;6.89;74.22;101516.22;1764275;80;21125;-40
2023/03/19 03:09:49;;;;;;;16.82;4.83;;;;;;;6.90;74.14;101519.28;1735470;83;21130;-40
2023/03/19 03:12:18;;;;;;;11.05;5.37;;;;;;;6.91;74.12;101518.37;1764489;81;21557;-38
2023/03/19 03:14:48;;;;;;;33.80;5.95;;;;;;;6.90;74.09;101514.90;1735471;83;21636;-39
2023/03/19 03:17:18;;;;;;;18.95;5.08;;;;;;;6.89;74.11;101518.39;1764587;81;21186;-39
2023/03/19 03:19:46;;;;;;;15.25;6.50;;;;;;;6.90;74.14;101518.83;1735580;83;21177;-39
2023/03/19 03:22:15;;;;;;;16.93;5.33;;;;;;;6.91;74.06;101519.23;1764460;81;21194;-39
2023/03/19 03:24:44;;;;;;;25.85;6.42;;;;;;;6.90;74.01;101518.83;1735487;83;21103;-40
2023/03/19 03:27:12;;;;;;;14.18;4.30;;;;;;;6.88;74.03;101515.36;1764385;81;21110;-40
2023/03/19 03:29:42;;;;;;;23.32;5.33;;;;;;;6.87;74.08;101516.23;1735406;83;21272;-41
2023/03/19 03:32:11;;;;;;;30.12;6.22;;;;;;;6.87;74.06;101524.09;1764418;81;21565;-43
2023/03/19 03:34:39;;;;;;;19.48;5.37;;;;;;;6.88;74.04;101532.37;1735552;82;21572;-41
2023/03/19 03:37:08;;;;;;;32.83;5.83;;;;;;;6.85;74.06;101533.72;1764436;81;21111;-42
2023/03/19 03:39:37;;;;;;;19.75;4.75;;;;;;;6.85;74.02;101523.23;1735488;82;21254;-42
2023/03/19 03:42:06;;;;;;;18.60;4.35;;;;;;;6.82;74.11;101520.65;1764300;81;21072;-42
2023/03/19 03:44:36;;;;;;;20.77;6.55;;;;;;;6.79;74.14;101519.81;1735489;82;21137;-42
2023/03/19 03:47:06;;;;;;;25.50;6.08;;;;;;;6.78;74.16;101520.27;1764541;81;21594;-41
2023/03/19 03:49:35;;;;;;;26.45;7.10;;;;;;;6.75;74.29;101517.25;1735607;83;21118;-40
2023/03/19 03:52:04;;;;;;;18.40;5.45;;;;;;;6.76;74.27;101519.41;1764426;81;21260;-40
2023/03/19 03:54:33;;;;;;;20.15;4.85;;;;;;;6.76;74.29;101518.96;1735454;83;21213;-41
2023/03/19 03:57:01;;;;;;;23.47;6.75;;;;;;;6.78;74.26;101519.41;1764407;81;21213;-41
2023/03/19 03:59:30;;;;;;;18.15;4.53;;;;;;;6.78;74.27;101522.02;1735609;83;21612;-40
2023/03/19 04:01:59;;;;;;;17.35;5.25;;;;;;;6.77;74.26;101518.55;1764420;81;21157;-41
2023/03/19 04:04:28;;;;;;;25.00;5.42;;;;;;;6.75;74.31;101521.59;1735523;83;21576;-40
2023/03/19 04:06:57;;;;;;;29.25;4.47;;;;;;;6.76;74.35;101522.03;1764281;81;21566;-41
2023/03/19 04:09:40;;;;;;;21.62;6.30;;;;;;;6.73;74.43;101528.59;1742375;82;21141;-41
2023/03/19 04:12:10;;;;;;;21.30;5.90;;;;;;;6.69;74.51;101527.76;1764079;81;21070;-41
2023/03/19 04:14:38;;;;;;;33.33;7.00;;;;;;;6.68;74.53;101530.42;1742907;82;21553;-40
2023/03/19 04:17:07;;;;;;;16.97;5.35;;;;;;;6.67;74.66;101525.60;1763958;81;21042;-41
2023/03/19 04:19:36;;;;;;;22.27;5.45;;;;;;;6.67;74.68;101530.84;1742783;82;21142;-41
2023/03/19 04:22:07;;;;;;;17.67;5.22;;;;;;;6.64;74.81;101532.62;1763958;81;21591;-41
2023/03/19 04:24:35;;;;;;;20.97;6.10;;;;;;;6.65;74.85;101540.91;1742947;82;21106;-41
2023/03/19 04:27:05;;;;;;;35.35;8.33;;;;;;;6.64;74.90;101532.20;1764018;81;21121;-41
2023/03/19 04:29:34;;;;;;;29.23;6.42;;;;;;;6.65;74.97;101535.23;1742873;82;21588;-41
2023/03/19 04:32:04;;;;;;;23.47;6.60;;;;;;;6.67;74.96;101539.14;1759734;80;21526;-45
2023/03/19 04:34:33;;;;;;;24.90;6.60;;;;;;;6.69;74.90;101543.91;1759690;80;21051;-41
2023/03/19 04:37:02;;;;;;;30.35;7.20;;;;;;;6.68;74.89;101544.81;1739535;81;21487;-41
2023/03/19 04:39:32;;;;;;;30.25;6.87;;;;;;;6.66;74.95;101546.55;1775142;80;21491;-42
2023/03/19 04:42:01;;;;;;;26.68;5.22;;;;;;;6.67;75.04;101557.46;1745135;81;21551;-41
2023/03/19 04:44:34;;;;;;;23.65;7.62;;;;;;;6.65;75.02;101560.09;1776120;79;21117;-41
2023/03/19 04:47:04;;;;;;;23.95;6.12;;;;;;;6.65;75.01;101560.53;1758595;81;21138;-41
2023/03/19 04:49:35;;;;;;;24.72;6.95;;;;;;;6.66;75.02;101557.91;1770813;80;21647;-41
2023/03/19 04:52:05;;;;;;;16.30;8.43;;;;;;;6.68;75.06;101553.98;1742970;82;21584;-41
2023/03/19 04:54:33;;;;;;;25.17;7.17;;;;;;;6.69;75.09;101557.86;1764014;81;21078;-42
2023/03/19 04:57:02;;;;;;;28.25;6.42;;;;;;;6.70;75.14;101554.83;1740054;82;21054;-42
2023/03/19 04:59:32;;;;;;;22.65;7.08;;;;;;;6.71;75.14;101548.69;1736499;83;21113;-42
2023/03/19 05:02:01;;;;;;;14.47;6.50;;;;;;;6.71;75.18;101546.07;1737178;83;21196;-42
2023/03/19 05:04:30;;;;;;;25.12;5.67;;;;;;;6.72;75.21;101542.14;1737170;83;21624;-42
2023/03/19 05:07:01;;;;;;;30.37;6.10;;;;;;;6.74;75.24;101539.51;1736622;82;21168;-42
2023/03/19 05:09:30;;;;;;;30.45;7.83;;;;;;;6.75;75.23;101533.38;1739668;82;21266;-42
2023/03/19 05:11:59;;;;;;;13.45;4.97;;;;;;;6.74;75.36;101529.89;1770361;79;21146;-42
2023/03/19 05:14:28;;;;;;;25.75;7.12;;;;;;;6.73;75.43;101523.36;1797712;78;21141;-42
2023/03/19 05:17:01;;;;;;;26.85;7.22;;;;;;;6.74;75.43;101529.03;1805163;78;21175;-41
2023/03/19 05:19:32;;;;;;;29.70;6.78;;;;;;;6.75;75.49;101525.52;1821738;78;21155;-42
2023/03/19 05:22:02;;;;;;;21.07;6.47;;;;;;;6.76;75.51;101519.41;1776693;79;21560;-42
2023/03/19 05:24:31;;;;;;;15.13;6.17;;;;;;;6.77;75.59;101515.92;1777024;79;21097;-39
2023/03/19 05:27:00;;;;;;;19.02;6.12;;;;;;;6.78;75.55;101520.27;1764051;80;21529;-39
2023/03/19 05:29:30;;;;;;;30.65;7.25;;;;;;;6.78;75.58;101532.04;1787144;80;21211;-39
2023/03/19 05:32:07;;;;;;;22.77;6.35;;;;;;;6.75;75.67;101542.53;1731418;80;21105;-41
2023/03/19 05:34:36;;;;;;;26.75;7.92;;;;;;;6.76;75.72;101540.35;1788424;80;21132;-40
2023/03/19 05:37:05;;;;;;;21.93;7.92;;;;;;;6.74;75.90;101538.20;1798447;78;21160;-40
2023/03/19 05:39:34;;;;;;;22.58;8.40;;;;;;;6.73;75.92;101537.76;1798271;80;21098;-40
2023/03/19 05:42:05;;;;;;;33.38;7.75;;;;;;;6.73;75.98;101542.58;1798063;80;21199;-40
2023/03/19 05:44:34;;;;;;;29.12;6.95;;;;;;;6.74;76.05;101543.44;1798408;79;21073;-40
2023/03/19 05:47:07;;;;;;;30.02;6.50;;;;;;;6.74;76.16;101553.91;1796366;79;21211;-40
2023/03/19 05:49:37;;;;;;;10.43;4.75;;;;;;;6.69;76.32;101548.70;1798355;80;21073;-39
2023/03/19 05:52:06;;;;;;;13.22;5.28;;;;;;;6.65;76.40;101545.69;1798468;80;21564;-39
2023/03/19 05:54:35;;;;;;;14.28;4.45;;;;;;;6.62;76.49;101552.70;1798374;79;21101;-39
2023/03/19 05:57:15;;;;;;;31.17;6.97;;;;;;;6.56;76.56;101554.49;1769081;80;21067;-39
2023/03/19 05:59:48;;;;;;;18.98;5.40;;;;;;;6.52;76.69;101555.41;1789501;80;21105;-39
2023/03/19 06:02:37;;;;;;;20.35;6.75;;;;;;;6.51;76.91;101552.38;1798323;78;21114;-39
2023/03/19 06:05:24;;;;;;;15.30;4.65;;;;;;;6.54;76.87;101552.33;1798360;80;21167;-40
2023/03/19 06:07:55;;;;;;;17.07;6.72;;;;;;;6.55;76.85;101550.16;1798292;78;21133;-41
2023/03/19 06:10:26;;;;;;;25.68;6.12;;;;;;;6.54;76.92;101559.33;1798661;79;21555;-40
2023/03/19 06:12:56;;;;;;;21.42;5.85;;;;;;;6.51;76.94;101561.54;1803115;79;21168;-40
2023/03/19 06:15:29;;;;;;;23.10;5.33;;;;;;;6.52;77.00;101559.33;1801297;79;21089;-40
2023/03/19 06:18:06;;;;;;;10.88;4.22;;;;;;;6.55;77.10;101558.45;1800819;79;21174;-40
2023/03/19 06:20:35;;;;;;;19.32;5.70;;;;;;;6.57;77.11;101535.30;1803156;79;21133;-40
2023/03/19 06:23:04;;;;;;;19.55;6.55;;;;;;;6.58;77.12;101542.70;1803135;79;21165;-40
2023/03/19 06:25:33;;;;;;;29.57;6.50;;;;;;;6.60;77.11;101542.25;1803062;79;21505;-40
2023/03/19 06:28:02;;;;;;;41.85;11.40;;;;;;;6.63;77.19;101536.14;1802987;79;21073;-40
2023/03/19 06:30:33;;;;;;;36.03;10.25;;;;;;;6.69;77.13;101535.61;1802327;79;21196;-40
2023/03/19 06:33:03;;;;;;;24.35;5.50;;;;;;;6.79;77.08;101533.79;1774103;79;21073;-40
2023/03/19 06:35:33;;;;;;;24.98;6.70;;;;;;;6.90;76.95;101532.37;1803038;79;21516;-40
2023/03/19 06:38:01;;;;;;;23.05;7.42;;;;;;;6.88;76.95;101529.77;1803052;79;21042;-40
2023/03/19 06:40:30;;;;;;;28.23;6.40;;;;;;;6.91;76.98;101528.84;1803051;79;21065;-40
2023/03/19 06:42:58;;;;;;;27.87;7.08;;;;;;;6.95;76.87;101532.74;1803055;79;21062;-40
2023/03/19 06:45:27;;;;;;;35.23;7.62;;;;;;;6.98;76.76;101536.20;1802958;79;21121;-40
2023/03/19 06:47:56;;;;;;;27.25;5.12;;;;;;;6.98;76.69;101527.90;1802968;79;21124;-40
2023/03/19 06:50:26;;;;;;;33.65;8.13;;;;;;;7.02;76.63;101527.42;1803129;79;21034;-40
2023/03/19 06:52:54;;;;;;;32.80;7.25;;;;;;;7.09;76.70;101531.25;1803032;79;21038;-40
2023/03/19 06:55:23;;;;;;;33.35;6.95;;;;;;;7.11;76.65;101539.09;1803063;79;21136;-40
2023/03/19 06:57:52;;;;;;;22.10;5.78;;;;;;;7.12;76.65;101536.47;1803117;79;21106;-41
2023/03/19 07:00:22;;;;;;;18.60;6.95;;;;;;;7.14;76.63;101525.53;1803137;79;21038;-40
2023/03/19 07:02:51;;;;;;;24.98;5.95;;;;;;;7.19;76.62;101525.45;1803135;79;21089;-40
2023/03/19 07:05:20;;;;;;;32.00;6.28;;;;;;;7.20;76.56;101527.20;1803032;79;21038;-40
2023/03/19 07:07:48;;;;;;;19.85;5.55;;;;;;;7.21;76.54;101528.06;1803129;79;21074;-40
2023/03/19 07:10:21;;;;;;;19.00;3.22;;;;;;;7.24;76.50;101526.27;1803006;79;21184;-41
2023/03/19 07:12:49;;;;;;;18.87;6.83;;;;;;;7.29;76.12;101522.30;1803323;79;21543;-40
2023/03/19 07:15:20;;;;;;;20.65;5.67;;;;;;;7.29;76.12;101522.30;1803035;79;21061;-40
2023/03/19 07:17:49;;;;;;;32.28;5.62;;;;;;;7.31;76.40;101520.06;1803109;79;21139;-40
2023/03/19 07:20:18;;;;;;;38.78;7.58;;;;;;;7.35;76.37;101523.52;1803029;79;21069;-40
2023/03/19 07:22:47;;;;;;;25.60;7.42;;;;;;;7.38;76.34;101515.63;1803020;79;21183;-40
2023/03/19 07:25:15;;;;;;;26.68;5.95;;;;;;;7.38;76.47;101509.50;1803104;79;21473;-40
2023/03/19 07:27:45;;;;;;;24.18;5.70;;;;;;;7.40;76.54;101511.68;1803087;79;21503;-40
2023/03/19 07:30:15;;;;;;;39.15;7.60;;;;;;;7.42;76.51;101511.22;1803024;79;21104;-40
2023/03/19 07:32:43;;;;;;;22.87;6.33;;;;;;;7.45;76.51;101505.48;1803111;79;21070;-40
2023/03/19 07:35:13;;;;;;;42.00;7.47;;;;;;;7.53;76.44;101508.85;1803016;79;21069;-40
2023/03/19 07:37:42;;;;;;;37.73;7.33;;;;;;;7.61;76.37;101506.57;1803073;79;21556;-40
2023/03/19 07:40:11;;;;;;;41.80;7.35;;;;;;;7.68;76.31;101512.15;1803170;79;21893;-40
2023/03/19 07:42:40;;;;;;;18.37;5.62;;;;;;;7.70;76.23;101511.23;1803118;79;21124;-40
2023/03/19 07:45:09;;;;;;;30.77;6.50;;;;;;;7.71;76.14;101509.04;1802976;79;21070;-40
2023/03/19 07:47:39;;;;;;;24.65;5.58;;;;;;;7.69;76.07;101506.00;1803081;79;21070;-40
2023/03/19 07:50:08;;;;;;;27.75;6.45;;;;;;;7.70;75.98;101519.09;1802924;79;21140;-40
2023/03/19 07:52:37;;;;;;;31.97;6.53;;;;;;;7.74;75.94;101514.22;1803102;79;21041;-40
2023/03/19 07:55:06;;;;;;;19.23;6.05;;;;;;;7.79;75.81;101521.17;1802978;79;21042;-40
2023/03/19 07:57:35;;;;;;;24.80;6.22;;;;;;;7.77;75.74;101514.63;1803096;79;21042;-40
2023/03/19 08:00:04;;;;;;;24.72;5.95;;;;;;;7.70;75.85;101515.16;1803005;79;21042;-40
2023/03/19 08:02:34;;;;;;;33.40;7.45;;;;;;;7.69;75.92;101517.38;1801625;79;21093;-40
2023/03/19 08:05:03;;;;;;;26.95;6.58;;;;;;;7.71;75.92;101518.22;1802997;79;21070;-40
2023/03/19 08:07:32;;;;;;;28.77;6.40;;;;;;;7.78;75.90;101518.11;1802980;79;21171;-40
2023/03/19 08:10:02;;;;;;;32.78;6.37;;;;;;;7.80;75.86;101513.28;1802896;79;21102;-40
2023/03/19 08:12:39;;;;;;;23.57;6.97;;;;;;;7.83;75.83;101516.30;1803083;79;21140;-40
2023/03/19 08:15:05;;;;;;;36.77;7.08;;;;;;;7.86;75.82;101509.70;1802392;79;21136;-40
2023/03/19 08:17:36;;;;;;;41.92;7.58;;;;;;;7.92;75.71;101506.98;1803095;79;21132;-40
2023/03/19 08:20:07;;;;;;;35.73;6.42;;;;;;;7.93;75.66;101505.64;1802957;79;21038;-40
2023/03/19 08:22:37;;;;;;;28.52;6.25;;;;;;;7.95;75.73;101503.00;1802997;79;21066;-40
2023/03/19 08:25:07;;;;;;;43.95;6.83;;;;;;;8.01;75.68;101508.14;1802920;79;21144;-40
2023/03/19 08:27:36;;;;;;;20.43;6.92;;;;;;;8.05;75.70;101508.50;1802984;79;21038;-40
2023/03/19 08:30:06;;;;;;;24.02;6.37;;;;;;;8.11;75.62;101506.22;1803048;79;21066;-40
2023/03/19 08:32:35;;;;;;;30.10;6.08;;;;;;;8.17;75.52;101511.81;1802959;79;21062;-40
2023/03/19 08:35:05;;;;;;;39.92;6.97;;;;;;;8.16;75.39;101515.34;1803096;79;21190;-40
2023/03/19 08:37:34;;;;;;;31.57;6.85;;;;;;;8.14;75.36;101502.70;1803082;79;21069;-40
2023/03/19 08:40:03;;;;;;;35.43;7.83;;;;;;;8.16;75.37;101508.33;1802857;79;21080;-40
2023/03/19 08:42:33;;;;;;;32.10;6.15;;;;;;;8.15;75.34;101507.89;1802977;79;21560;-40
2023/03/19 08:45:02;;;;;;;34.18;6.87;;;;;;;8.17;75.29;101505.25;1803075;79;21544;-40
2023/03/19 08:47:30;;;;;;;33.80;6.85;;;;;;;8.21;75.26;101510.89;1802974;79;21062;-40
2023/03/19 08:49:59;;;;;;;19.20;6.12;;;;;;;8.20;75.17;101510.46;1803046;79;21132;-40
2023/03/19 08:52:28;;;;;;;45.35;7.08;;;;;;;8.22;75.14;101512.16;1802922;79;21065;-40
2023/03/19 08:54:57;;;;;;;31.48;8.30;;;;;;;8.25;75.04;101511.25;1803065;79;21066;-40
2023/03/19 08:57:25;;;;;;;26.73;6.20;;;;;;;8.27;74.99;101513.41;1803039;79;21136;-40
2023/03/19 08:59:54;;;;;;;33.67;7.67;;;;;;;8.30;75.00;101517.30;1803186;79;21074;-40
2023/03/19 09:02:23;;;;;;;43.17;7.65;;;;;;;8.33;74.93;101519.84;1803180;79;21081;-40
2023/03/19 09:04:51;;;;;;;25.72;6.92;;;;;;;8.37;74.93;101513.64;1803149;79;21062;-40
2023/03/19 09:07:21;;;;;;;35.10;6.90;;;;;;;8.38;74.85;101519.78;1803150;79;21552;-40
2023/03/19 09:09:50;;;;;;;43.75;8.53;;;;;;;8.42;74.89;101516.23;1803124;79;21496;-40
2023/03/19 09:12:18;;;;;;;38.23;8.48;;;;;;;8.42;74.92;101518.86;1802985;79;21097;-40
2023/03/19 09:14:47;;;;;;;28.85;5.75;;;;;;;8.40;75.06;101520.16;1803040;79;21533;-40
2023/03/19 09:17:17;;;;;;;26.50;7.03;;;;;;;8.45;75.03;101522.76;1803074;79;21077;-40
2023/03/19 09:19:45;;;;;;;35.65;7.15;;;;;;;8.44;74.94;101513.99;1802983;79;21555;-40
2023/03/19 09:22:14;;;;;;;36.13;8.40;;;;;;;8.46;74.89;101517.45;1803062;79;21066;-40
2023/03/19 09:24:43;;;;;;;36.98;8.58;;;;;;;8.46;75.01;101517.45;1803141;79;21101;-40
2023/03/19 09:27:11;;;;;;;30.80;7.12;;;;;;;8.45;75.07;101509.18;1803188;79;21078;-40
2023/03/19 09:29:40;;;;;;;33.50;6.75;;;;;;;8.47;75.00;101510.02;1803282;79;21050;-40
2023/03/19 09:32:09;;;;;;;32.63;6.53;;;;;;;8.53;74.96;101502.92;1803090;79;21519;-40
2023/03/19 09:34:39;;;;;;;22.45;6.72;;;;;;;8.60;74.99;101501.92;1803029;79;21101;-39
2023/03/19 09:37:10;;;;;;;31.42;8.15;;;;;;;8.61;74.87;101499.70;1803082;79;21066;-40
2023/03/19 09:39:38;;;;;;;37.40;8.53;;;;;;;8.62;74.74;101501.45;1803101;79;21066;-40
2023/03/19 09:42:19;;;;;;;41.55;8.03;;;;;;;8.62;74.56;101494.88;1803066;79;21027;-40
2023/03/19 09:44:48;;;;;;;36.70;8.15;;;;;;;8.68;74.53;101495.61;1801587;79;21590;-40
2023/03/19 09:47:27;;;;;;;39.40;8.83;;;;;;;8.78;74.37;101496.75;1803073;79;21062;-40
2023/03/19 09:49:56;;;;;;;33.80;7.30;;;;;;;8.78;74.23;101492.38;1801624;79;21061;-40
2023/03/19 09:52:49;;;;;;;40.58;7.72;;;;;;;8.81;74.18;101488.82;1803192;79;21070;-40
2023/03/19 09:55:33;;;;;;;40.48;9.35;;;;;;;8.80;74.13;101487.96;1803151;79;21504;-40
2023/03/19 09:58:01;;;;;;;48.20;9.48;;;;;;;8.82;74.16;101487.48;1803213;79;21053;-40
2023/03/19 10:00:35;;;;;;;28.25;7.58;;;;;;;8.87;74.10;101485.63;1803266;79;21148;-40
2023/03/19 10:03:16;;;;;;;36.03;8.10;;;;;;;8.88;74.00;101482.55;1802939;79;21140;-40
2023/03/19 10:05:50;;;;;;;29.95;8.40;;;;;;;8.92;74.13;101483.36;1802822;79;21195;-40
2023/03/19 10:08:44;;;;;;;30.72;8.58;;;;;;;8.96;74.03;101478.45;1802835;79;21070;-40
2023/03/19 10:11:19;;;;;;;;;;;;;;;8.94;73.86;101473.68;1803686;79;21239;-40
2023/03/19 10:13:51;;;;;;;40.75;7.30;;;;;;;8.95;73.86;101472.34;1801227;79;20119;-40
2023/03/19 10:16:22;;;;;;;23.22;6.40;;;;;;;8.98;73.78;101472.71;1803052;79;21054;-40
2023/03/19 10:18:53;;;;;;;50.08;9.58;;;;;;;9.03;73.75;101469.55;1803030;79;21124;-40
2023/03/19 10:21:44;;;;;;;45.80;9.73;;;;;;;9.05;73.71;101470.38;1803047;79;21058;-39
2023/03/19 10:24:32;;;;;;;40.58;9.58;;;;;;;9.01;73.72;101468.72;1803059;79;21537;-40
2023/03/19 10:27:04;;;;;;;45.73;10.03;;;;;;;8.99;73.70;101464.81;1802982;79;21132;-40
2023/03/19 10:29:34;;;;;;;38.67;9.78;;;;;;;9.02;73.71;101453.39;1801623;79;21097;-39
2023/03/19 10:32:12;;;;;;;30.70;8.45;;;;;;;9.06;73.76;101452.42;1803155;79;21085;-39
2023/03/19 10:34:47;;;;;;;30.12;8.05;;;;;;;9.07;73.78;101447.14;1803040;79;21493;-40
2023/03/19 10:37:22;;;;;;;40.17;9.33;;;;;;;9.09;73.71;101444.45;1802640;78;21066;-40
2023/03/19 10:39:53;;;;;;;33.20;9.45;;;;;;;9.13;73.64;101443.52;1803173;79;21038;-40
2023/03/19 10:42:55;;;;;;;35.58;8.40;;;;;;;9.13;73.56;101440.88;1803148;79;21109;-39
2023/03/19 10:45:37;;;;;;;31.55;7.58;;;;;;;9.13;73.51;101438.69;1802424;79;21163;-40
2023/03/19 10:48:08;;;;;;;40.52;8.50;;;;;;;9.16;73.43;101439.48;1803139;79;21062;-40
2023/03/19 10:50:48;;;;;;;37.30;9.60;;;;;;;9.14;73.44;101435.17;1802603;78;21516;-40
2023/03/19 10:53:19;;;;;;;45.10;9.20;;;;;;;9.13;73.40;101430.80;1802963;79;21057;-40
2023/03/19 10:55:56;;;;;;;32.03;9.53;;;;;;;9.15;73.39;101423.75;1802892;79;21066;-39
2023/03/19 10:58:28;;;;;;;32.55;8.05;;;;;;;9.15;73.49;101416.75;1802059;79;21133;-39
2023/03/19 11:01:11;;;;;;;42.40;10.03;;;;;;;9.15;73.73;101418.49;1803143;79;21501;-39
2023/03/19 11:03:58;;;;;;;41.98;10.05;;;;;;;9.15;73.83;101416.75;1802713;79;21532;-40
2023/03/19 11:06:30;;;;;;;30.23;9.63;;;;;;;9.19;73.87;101416.23;1803034;79;21136;-39
2023/03/19 11:09:01;;;;;;;32.17;8.88;;;;;;;9.27;73.74;101419.55;1803032;79;21090;-40
2023/03/19 11:11:54;;;;;;;35.00;10.18;;;;;;;9.30;73.55;101418.17;1802961;79;21041;-40
2023/03/19 11:14:31;;;;;;;56.23;11.88;;;;;;;9.30;73.39;101418.62;1801811;79;21698;-39
2023/03/19 11:17:08;;;;;;;40.75;10.18;;;;;;;9.30;73.34;101416.00;1802756;78;21069;-39
2023/03/19 11:19:42;;;;;;;46.53;10.70;;;;;;;9.29;73.28;101424.30;1801699;79;21161;-39
2023/03/19 11:22:14;;;;;;;35.25;9.45;;;;;;;9.29;73.23;101421.68;1803031;79;21082;-39
2023/03/19 11:24:52;;;;;;;47.17;10.88;;;;;;;9.26;73.20;101413.89;1802929;79;21062;-39
2023/03/19 11:27:28;;;;;;;34.88;9.73;;;;;;;9.22;73.26;101409.16;1803022;79;21042;-39
2023/03/19 11:29:57;;;;;;;45.85;11.03;;;;;;;9.25;73.31;101404.27;1802954;79;21038;-39
2023/03/19 11:32:32;;;;;;;44.53;9.75;;;;;;;9.28;73.28;101404.20;1802981;79;21137;-39
2023/03/19 11:35:06;;;;;;;37.10;10.40;;;;;;;9.32;73.19;101401.91;1801792;79;21137;-40
2023/03/19 11:37:56;;;;;;;33.05;10.43;;;;;;;9.37;73.13;101402.67;1800832;79;21066;-39
2023/03/19 11:40:40;;;;;;;45.10;11.20;;;;;;;9.42;73.09;101397.30;1803102;79;21560;-39
2023/03/19 11:43:27;;;;;;;;;;;;;;;9.45;73.03;101388.03;1805691;79;21517;-39
2023/03/19 11:46:28;;;;;;;40.90;10.03;;;;;;;9.47;73.00;101387.08;1803013;78;20158;-40